Minneapolis-St Paul International/Wold-Chamberlain Airport
KMSP : now visible

Airfield :











YOU CAN JOIN US ON...

 
LOGIN :

Register | Disclaimer

   EN    FR    IT 

 









Legend :    VFR   Marginal VFR   IFR   Intensive IFR   Very Intensive IFR
Visi :
Ceiling :
>= 8 km
>= 3000ft
5 to 8 km
1000 to 3000 ft
1500m to 5 km
500 to 1000 ft
800 to 1500m
200 to 500 ft
< 800m
< 200 ft
Symbols :   Thunderstorms  Fog  Heavy snow  Heavy precipitations  Wind > 20 kt






- Airport Elevation : 841 ft
- IATA code : MSP


KMSP - Minneapolis-St Paul International/Wold-Chamberlain

CURRENT METAR :
  • 251953Z 07008KT 10SM FEW090 FEW250 M06/M19 A3008 RMK AO2 SLP202 T10611194

EXPIRED METARs :
  • 251853Z 05006KT 10SM FEW110 FEW250 M07/M19 A3010 RMK AO2 SLP210 T10671189
  • 251753Z 06009KT 10SM FEW110 FEW250 M08/M19 A3014 RMK AO2 SLP223 4/009 933017 T10781194 11078 21117 58016
  • 251653Z 05010KT 10SM FEW110 FEW250 M09/M18 A3016 RMK AO2 SLP230 T10941178

TAF KMSP
Valid from the 25 at 18:00 until the 27 at 00:00 UTC


251735Z 2518/2624 05011KT P6SM SCT120
FM260300 02011KT P6SM SCT120
FM261000 01009KT P6SM SCT025 BKN150
KZMP FIR / North America



MET'MAP, your aeronautical weather chart ! - Copyright ORBIFLY December 2007 - Disclaimer

ORBIFLY MET'MAP TEAM :

Programming & Development : Alexandra Zaïnal
Concept & original design : Baudouin d'Aumeries
Assistance for programming : Marc-Olivier Méhu
Technical & hardware support : Manuel Goepfert

Contact : metmap@orbifly.com




SOURCES & CREDITS :

   NOAA       Earth
Advisory